Time;durP1;ratioP1;P1;durP2;ratioP2;P2;SDS_P1;SDS_P2;PMS_P1;PMS_P2;Temp;Humidity;BMP_temperature;BMP_pressure;BME280_temperature;BME280_humidity;BME280_pressure;Samples;Min_cycle;Max_cycle;Signal;HPM_P1;HPM_P2
2023/05/01 00:01:21;;;;;;;65.93;12.55;;;;;;;;;;5032832;28;20473;-79
2023/05/01 00:03:47;;;;;;;84.22;11.75;;;;;;;;;;5034249;28;20040;-80
2023/05/01 00:06:12;;;;;;;76.70;11.85;;;;;;;;;;5037873;28;20052;-79
2023/05/01 00:08:38;;;;;;;75.43;10.48;;;;;;;;;;5044913;28;20385;-79
2023/05/01 00:11:04;;;;;;;84.47;12.25;;;;;;;;;;5036439;28;20405;-79
2023/05/01 00:13:30;;;;;;;51.20;10.27;;;;;;;;;;5032705;28;20041;-79
2023/05/01 00:15:56;;;;;;;48.45;9.45;;;;;;;;;;5041450;28;20033;-79
2023/05/01 00:18:21;;;;;;;50.78;9.75;;;;;;;;;;5032606;28;20432;-79
2023/05/01 00:20:47;;;;;;;48.47;10.27;;;;;;;;;;5032153;28;20033;-79
2023/05/01 00:23:12;;;;;;;47.05;9.40;;;;;;;;;;5044152;28;20057;-80
2023/05/01 00:25:38;;;;;;;50.67;10.35;;;;;;;;;;5034858;28;20045;-79
2023/05/01 00:28:05;;;;;;;54.50;9.75;;;;;;;;;;5042531;28;20091;-79
2023/05/01 00:30:32;;;;;;;45.92;9.65;;;;;;;;;;5023128;28;20478;-79
2023/05/01 00:32:58;;;;;;;53.83;10.90;;;;;;;;;;5035093;28;20396;-79
2023/05/01 00:35:23;;;;;;;53.63;8.65;;;;;;;;;;5043748;28;20485;-79
2023/05/01 00:37:49;;;;;;;53.15;9.60;;;;;;;;;;5037288;28;20060;-79
2023/05/01 00:40:15;;;;;;;53.72;8.88;;;;;;;;;;5033002;28;20075;-79
2023/05/01 00:42:40;;;;;;;55.97;10.18;;;;;;;;;;5065254;28;20428;-79
2023/05/01 00:45:06;;;;;;;58.40;10.70;;;;;;;;;;5035405;28;20029;-79
2023/05/01 00:47:34;;;;;;;66.30;11.05;;;;;;;;;;5048649;28;20037;-79
2023/05/01 00:50:00;;;;;;;56.85;10.93;;;;;;;;;;5047168;28;20041;-79
2023/05/01 00:52:25;;;;;;;59.33;10.57;;;;;;;;;;5039651;28;20033;-79
2023/05/01 00:54:51;;;;;;;53.08;11.02;;;;;;;;;;4999102;28;1163793;-79
2023/05/01 00:57:20;;;;;;;59.13;11.68;;;;;;;;;;5040929;28;20029;-79
2023/05/01 00:59:46;;;;;;;65.43;11.48;;;;;;;;;;5053796;28;20034;-79
2023/05/01 01:02:12;;;;;;;57.63;11.55;;;;;;;;;;5036087;28;20035;-80
2023/05/01 01:04:39;;;;;;;56.97;10.27;;;;;;;;;;5043715;28;20037;-79
2023/05/01 01:07:16;;;;;;;44.80;10.13;;;;;;;;;;5053733;28;20116;-79
2023/05/01 01:10:04;;;;;;;61.38;10.52;;;;;;;;;;5043818;28;20124;-79
2023/05/01 01:12:45;;;;;;;56.67;10.43;;;;;;;;;;5044953;28;20639;-79
2023/05/01 01:15:33;;;;;;;49.50;10.93;;;;;;;;;;5060081;28;20550;-79
2023/05/01 01:18:13;;;;;;;81.88;11.00;;;;;;;;;;5025707;28;20057;-79
2023/05/01 01:20:45;;;;;;;48.40;10.00;;;;;;;;;;5038631;28;20029;-79
2023/05/01 01:23:23;;;;;;;87.40;11.68;;;;;;;;;;5063833;28;20383;-79
2023/05/01 01:26:07;;;;;;;44.47;10.93;;;;;;;;;;5033784;28;20108;-79
2023/05/01 01:28:32;;;;;;;;;;;;;;;;;;5038442;28;20497;-79
2023/05/01 01:31:13;;;;;;;46.10;9.75;;;;;;;;;;5037692;28;19917;-79
2023/05/01 01:33:41;;;;;;;50.85;10.93;;;;;;;;;;5037622;28;20033;-79
2023/05/01 01:36:11;;;;;;;45.58;9.70;;;;;;;;;;5039683;28;20413;-79
2023/05/01 01:38:41;;;;;;;48.55;9.30;;;;;;;;;;5036521;28;20461;-79
2023/05/01 01:41:23;;;;;;;42.17;8.95;;;;;;;;;;5048252;28;20049;-79
2023/05/01 01:43:57;;;;;;;51.70;9.88;;;;;;;;;;5069567;28;20045;-79
2023/05/01 01:46:23;;;;;;;53.97;9.93;;;;;;;;;;5043272;28;20076;-78
2023/05/01 01:48:49;;;;;;;44.65;9.27;;;;;;;;;;5051338;28;20065;-79
2023/05/01 01:51:17;;;;;;;65.00;10.52;;;;;;;;;;5038641;28;20033;-79
2023/05/01 01:53:45;;;;;;;71.97;10.68;;;;;;;;;;5043814;28;20044;-78
2023/05/01 01:56:11;;;;;;;55.72;9.95;;;;;;;;;;5039564;28;20128;-79
2023/05/01 01:58:38;;;;;;;52.60;9.07;;;;;;;;;;5052362;28;20164;-79
2023/05/01 02:01:05;;;;;;;65.57;10.20;;;;;;;;;;5022425;28;20113;-79
2023/05/01 02:03:32;;;;;;;63.00;10.27;;;;;;;;;;5035367;28;20481;-79
2023/05/01 02:05:58;;;;;;;90.03;11.05;;;;;;;;;;5054554;28;20037;-79
2023/05/01 02:08:24;;;;;;;56.70;10.27;;;;;;;;;;5036883;28;20048;-79
2023/05/01 02:10:50;;;;;;;67.30;10.10;;;;;;;;;;5043022;28;20045;-79
2023/05/01 02:13:16;;;;;;;54.17;9.55;;;;;;;;;;5046633;28;20032;-79
2023/05/01 02:15:44;;;;;;;77.07;10.32;;;;;;;;;;5038056;28;20037;-79
2023/05/01 02:18:10;;;;;;;58.63;9.68;;;;;;;;;;5034934;28;20096;-79
2023/05/01 02:20:36;;;;;;;71.38;10.85;;;;;;;;;;5050178;28;20030;-79
2023/05/01 02:23:02;;;;;;;67.18;10.85;;;;;;;;;;5042156;28;20405;-79
2023/05/01 02:25:30;;;;;;;58.63;9.68;;;;;;;;;;5061842;28;20128;-79
2023/05/01 02:27:59;;;;;;;64.35;11.70;;;;;;;;;;5020078;28;20113;-79
2023/05/01 02:30:24;;;;;;;63.28;11.40;;;;;;;;;;5048644;28;20043;-79
2023/05/01 02:32:50;;;;;;;55.78;11.45;;;;;;;;;;5041966;28;20037;-79
2023/05/01 02:35:16;;;;;;;81.50;11.32;;;;;;;;;;5048792;28;20091;-79
2023/05/01 02:37:42;;;;;;;65.50;10.77;;;;;;;;;;5048029;28;20034;-79
2023/05/01 02:40:08;;;;;;;81.88;10.85;;;;;;;;;;5033618;28;20080;-79
2023/05/01 02:42:36;;;;;;;76.85;10.68;;;;;;;;;;5038065;28;20048;-79
2023/05/01 02:45:07;;;;;;;73.00;10.57;;;;;;;;;;5033531;28;20041;-79
2023/05/01 02:47:37;;;;;;;62.03;13.02;;;;;;;;;;5041000;28;20516;-79
2023/05/01 02:50:04;;;;;;;70.38;12.65;;;;;;;;;;5033639;28;20120;-79
2023/05/01 02:52:30;;;;;;;68.70;14.10;;;;;;;;;;5064609;28;20512;-80
2023/05/01 02:54:56;;;;;;;56.88;10.48;;;;;;;;;;5033142;28;20129;-79
2023/05/01 02:57:22;;;;;;;53.22;9.88;;;;;;;;;;5052831;28;20099;-79
2023/05/01 02:59:47;;;;;;;51.75;9.55;;;;;;;;;;5036779;28;20472;-79
2023/05/01 03:02:14;;;;;;;55.83;9.60;;;;;;;;;;5045043;28;20054;-79
2023/05/01 03:04:40;;;;;;;54.90;9.77;;;;;;;;;;5047924;28;20128;-79
2023/05/01 03:07:06;;;;;;;50.45;9.40;;;;;;;;;;5038471;28;20496;-79
2023/05/01 03:09:31;;;;;;;57.47;9.65;;;;;;;;;;5038766;28;20021;-79
2023/05/01 03:11:56;;;;;;;57.83;9.73;;;;;;;;;;5040849;28;20055;-79
2023/05/01 03:14:22;;;;;;;52.20;9.48;;;;;;;;;;5038316;28;20041;-79
2023/05/01 03:16:48;;;;;;;43.50;8.68;;;;;;;;;;5041746;28;20033;-79
2023/05/01 03:19:13;;;;;;;53.13;9.35;;;;;;;;;;5038592;28;20064;-79
2023/05/01 03:21:38;;;;;;;34.92;7.55;;;;;;;;;;5042871;28;20405;-79
2023/05/01 03:24:05;;;;;;;52.13;8.20;;;;;;;;;;5045460;28;20393;-79
2023/05/01 03:26:31;;;;;;;46.25;7.78;;;;;;;;;;5036377;28;20042;-79
2023/05/01 03:28:57;;;;;;;50.22;8.80;;;;;;;;;;5042336;28;20130;-79
2023/05/01 03:31:22;;;;;;;51.75;7.55;;;;;;;;;;5033563;28;20060;-79
2023/05/01 03:33:48;;;;;;;48.78;8.30;;;;;;;;;;5037466;28;20030;-79
2023/05/01 03:36:13;;;;;;;59.83;8.63;;;;;;;;;;5033172;28;20049;-79
2023/05/01 03:38:38;;;;;;;66.60;9.10;;;;;;;;;;5040320;28;20420;-79
2023/05/01 03:41:04;;;;;;;70.47;8.18;;;;;;;;;;5036983;28;20538;-79
2023/05/01 03:43:30;;;;;;;65.60;9.65;;;;;;;;;;5038979;28;20052;-79
2023/05/01 03:45:56;;;;;;;56.80;9.32;;;;;;;;;;5033413;28;20037;-79
2023/05/01 03:48:22;;;;;;;68.65;9.85;;;;;;;;;;5033804;28;20037;-79
2023/05/01 03:50:47;;;;;;;66.03;11.15;;;;;;;;;;5033327;28;20040;-79
2023/05/01 03:53:13;;;;;;;42.05;8.68;;;;;;;;;;5040056;28;20393;-79
2023/05/01 03:55:39;;;;;;;46.10;9.40;;;;;;;;;;5038377;28;20081;-79
2023/05/01 03:58:05;;;;;;;62.63;10.35;;;;;;;;;;5037044;28;20037;-79
2023/05/01 04:00:31;;;;;;;62.95;9.50;;;;;;;;;;5038288;28;20441;-79
2023/05/01 04:02:56;;;;;;;55.08;9.68;;;;;;;;;;5031625;28;20117;-79
2023/05/01 04:05:22;;;;;;;74.88;10.38;;;;;;;;;;5035577;28;20045;-78
2023/05/01 04:07:47;;;;;;;56.00;9.30;;;;;;;;;;5041707;28;20148;-79
2023/05/01 04:10:13;;;;;;;68.88;9.48;;;;;;;;;;5033539;28;20068;-79
2023/05/01 04:12:38;;;;;;;59.35;9.45;;;;;;;;;;5035735;28;20069;-79
2023/05/01 04:15:04;;;;;;;39.30;8.43;;;;;;;;;;5033633;28;20037;-79
2023/05/01 04:17:30;;;;;;;47.25;9.85;;;;;;;;;;5033126;28;20045;-79
2023/05/01 04:19:56;;;;;;;62.72;8.48;;;;;;;;;;5037968;28;20045;-78
2023/05/01 04:22:22;;;;;;;107.50;12.07;;;;;;;;;;5047319;28;20059;-79
2023/05/01 04:24:48;;;;;;;62.25;9.23;;;;;;;;;;5053280;28;20041;-79
2023/05/01 04:27:13;;;;;;;65.55;10.63;;;;;;;;;;5042782;28;20106;-79
2023/05/01 04:29:38;;;;;;;49.10;9.60;;;;;;;;;;5042096;28;20512;-79
2023/05/01 04:32:04;;;;;;;56.10;10.05;;;;;;;;;;5045769;28;20032;-79
2023/05/01 04:34:29;;;;;;;44.15;9.40;;;;;;;;;;5045431;28;20473;-78
2023/05/01 04:36:58;;;;;;;55.38;9.88;;;;;;;;;;5038317;28;20056;-79
2023/05/01 04:39:23;;;;;;;58.00;9.88;;;;;;;;;;5044473;28;20037;-79
2023/05/01 04:41:48;;;;;;;56.78;9.73;;;;;;;;;;5045386;28;20401;-79
2023/05/01 04:44:14;;;;;;;50.65;9.77;;;;;;;;;;5036882;28;20389;-79
2023/05/01 04:46:39;;;;;;;56.83;9.43;;;;;;;;;;5040858;28;20043;-79
2023/05/01 04:49:05;;;;;;;51.90;9.30;;;;;;;;;;5036385;28;20128;-79
2023/05/01 04:51:30;;;;;;;53.38;9.43;;;;;;;;;;5048568;28;20069;-79
2023/05/01 04:53:56;;;;;;;59.58;9.40;;;;;;;;;;5048935;28;20034;-79
2023/05/01 04:56:21;;;;;;;60.15;8.82;;;;;;;;;;5035547;28;20060;-79
2023/05/01 04:58:47;;;;;;;91.45;10.45;;;;;;;;;;5045762;28;20056;-78
2023/05/01 05:01:12;;;;;;;54.05;8.73;;;;;;;;;;5034894;28;20045;-79
2023/05/01 05:03:37;;;;;;;53.25;8.80;;;;;;;;;;5037924;28;20038;-79
2023/05/01 05:06:03;;;;;;;47.67;8.98;;;;;;;;;;5038106;28;20041;-78
2023/05/01 05:08:29;;;;;;;59.65;8.73;;;;;;;;;;5066714;28;20266;-79
2023/05/01 05:10:57;;;;;;;49.03;8.50;;;;;;;;;;5043654;28;20036;-78
2023/05/01 05:13:22;;;;;;;50.22;8.50;;;;;;;;;;5048055;28;20385;-79
2023/05/01 05:15:47;;;;;;;52.08;7.93;;;;;;;;;;5035698;28;20030;-79
2023/05/01 05:18:13;;;;;;;43.13;7.40;;;;;;;;;;5046561;28;20044;-79
2023/05/01 05:20:38;;;;;;;40.65;7.68;;;;;;;;;;5039150;28;20038;-78
2023/05/01 05:23:04;;;;;;;53.67;8.70;;;;;;;;;;5035526;28;20041;-79
2023/05/01 05:25:29;;;;;;;45.80;9.20;;;;;;;;;;5035913;28;20073;-79
2023/05/01 05:27:55;;;;;;;43.20;9.38;;;;;;;;;;5042464;28;20033;-78
2023/05/01 05:30:20;;;;;;;54.67;8.65;;;;;;;;;;5037489;28;20064;-78
2023/05/01 05:32:46;;;;;;;45.10;7.85;;;;;;;;;;5037561;28;20037;-79
2023/05/01 05:35:11;;;;;;;67.03;9.70;;;;;;;;;;5037190;28;20045;-78
2023/05/01 05:37:37;;;;;;;41.60;8.50;;;;;;;;;;5040016;28;20473;-79
2023/05/01 05:40:02;;;;;;;38.90;8.05;;;;;;;;;;5043004;28;20136;-78
2023/05/01 05:42:28;;;;;;;59.05;8.30;;;;;;;;;;5038453;28;20466;-78
2023/05/01 05:44:53;;;;;;;44.60;8.23;;;;;;;;;;5044040;28;20111;-79
2023/05/01 05:47:19;;;;;;;45.80;8.20;;;;;;;;;;5039259;28;20045;-79
2023/05/01 05:49:44;;;;;;;79.97;9.38;;;;;;;;;;5035420;28;20042;-78
2023/05/01 05:52:09;;;;;;;38.70;8.90;;;;;;;;;;5034683;28;20037;-78
2023/05/01 05:54:35;;;;;;;44.00;8.70;;;;;;;;;;5043399;28;20429;-79
2023/05/01 05:57:02;;;;;;;32.63;7.85;;;;;;;;;;5031415;28;20030;-79
2023/05/01 05:59:27;;;;;;;55.47;10.02;;;;;;;;;;5040681;28;20497;-78
2023/05/01 06:01:53;;;;;;;35.97;8.27;;;;;;;;;;5040519;28;20038;-78
2023/05/01 06:04:18;;;;;;;55.20;8.95;;;;;;;;;;5041579;28;20103;-79
2023/05/01 06:06:43;;;;;;;39.22;9.27;;;;;;;;;;5046098;28;20043;-79
2023/05/01 06:09:10;;;;;;;38.17;8.73;;;;;;;;;;5045187;28;20485;-79
2023/05/01 06:11:35;;;;;;;38.35;9.45;;;;;;;;;;5034672;28;20067;-78
2023/05/01 06:14:01;;;;;;;31.35;8.45;;;;;;;;;;5046971;28;20065;-79
2023/05/01 06:16:27;;;;;;;32.53;9.20;;;;;;;;;;5035684;28;20038;-79
2023/05/01 06:18:52;;;;;;;36.33;9.15;;;;;;;;;;5047961;28;20036;-79
2023/05/01 06:21:17;;;;;;;27.30;7.80;;;;;;;;;;5035671;28;20508;-79
2023/05/01 06:23:43;;;;;;;26.80;7.85;;;;;;;;;;5036556;28;20045;-79
2023/05/01 06:26:08;;;;;;;32.67;8.25;;;;;;;;;;5040102;28;20033;-79
2023/05/01 06:28:34;;;;;;;30.08;8.32;;;;;;;;;;5035181;28;20396;-78
2023/05/01 06:30:59;;;;;;;23.60;7.72;;;;;;;;;;5039230;28;20041;-79
2023/05/01 06:33:25;;;;;;;24.38;7.63;;;;;;;;;;5034181;28;20421;-79
2023/05/01 06:35:50;;;;;;;33.90;7.78;;;;;;;;;;5036813;28;20037;-78
2023/05/01 06:38:15;;;;;;;26.95;7.15;;;;;;;;;;5046245;28;20378;-79
2023/05/01 06:40:41;;;;;;;26.42;7.38;;;;;;;;;;5039495;28;20084;-78
2023/05/01 06:43:07;;;;;;;22.08;8.10;;;;;;;;;;5054207;28;20112;-79
2023/05/01 06:45:32;;;;;;;21.65;7.47;;;;;;;;;;5039438;28;20048;-79
2023/05/01 06:47:58;;;;;;;22.00;6.93;;;;;;;;;;5034051;28;20033;-79
2023/05/01 06:50:23;;;;;;;17.70;6.80;;;;;;;;;;5035558;28;20049;-79
2023/05/01 06:52:49;;;;;;;18.70;6.63;;;;;;;;;;5042801;28;20044;-79
2023/05/01 06:55:14;;;;;;;19.40;6.00;;;;;;;;;;5047703;28;20056;-79
2023/05/01 06:57:40;;;;;;;17.10;6.93;;;;;;;;;;5033762;28;20056;-79
2023/05/01 07:00:06;;;;;;;15.93;7.13;;;;;;;;;;5035856;28;20044;-79
2023/05/01 07:02:31;;;;;;;14.68;6.90;;;;;;;;;;5040786;28;20465;-79
2023/05/01 07:04:57;;;;;;;13.00;6.40;;;;;;;;;;5039589;28;20029;-79
2023/05/01 07:07:23;;;;;;;14.32;5.90;;;;;;;;;;5040621;28;20370;-78
2023/05/01 07:09:48;;;;;;;13.82;6.20;;;;;;;;;;5044155;28;20115;-78
2023/05/01 07:12:14;;;;;;;9.88;4.55;;;;;;;;;;5033237;28;20042;-79
2023/05/01 07:14:40;;;;;;;12.18;4.15;;;;;;;;;;5042288;28;20041;-78
2023/05/01 07:17:07;;;;;;;8.88;3.92;;;;;;;;;;5033932;28;20367;-79
2023/05/01 07:19:33;;;;;;;9.93;4.32;;;;;;;;;;5027265;28;20041;-79
2023/05/01 07:21:58;;;;;;;8.43;4.00;;;;;;;;;;5039727;28;20095;-79
2023/05/01 07:24:23;;;;;;;6.45;2.85;;;;;;;;;;5040573;28;20119;-79
2023/05/01 07:26:49;;;;;;;8.57;2.90;;;;;;;;;;5029140;28;20048;-79
2023/05/01 07:29:15;;;;;;;8.68;2.58;;;;;;;;;;5037151;28;20044;-79
2023/05/01 07:31:41;;;;;;;8.48;2.40;;;;;;;;;;5036897;28;20033;-79
2023/05/01 07:34:06;;;;;;;6.82;2.10;;;;;;;;;;5047302;28;20048;-79
2023/05/01 07:36:32;;;;;;;4.70;1.65;;;;;;;;;;5042020;28;20037;-79
2023/05/01 07:38:58;;;;;;;3.78;1.38;;;;;;;;;;5042083;28;20393;-78
2023/05/01 07:41:24;;;;;;;5.30;1.77;;;;;;;;;;5036166;28;20045;-79
2023/05/01 07:43:49;;;;;;;5.60;1.42;;;;;;;;;;5033242;28;20041;-79
2023/05/01 07:46:15;;;;;;;3.70;1.30;;;;;;;;;;5034536;28;20029;-79
2023/05/01 07:48:41;;;;;;;5.90;1.60;;;;;;;;;;5047191;28;20044;-79
2023/05/01 07:51:06;;;;;;;5.30;1.27;;;;;;;;;;5039443;28;20401;-79
2023/05/01 07:53:32;;;;;;;3.63;1.17;;;;;;;;;;5034245;28;20380;-79
2023/05/01 07:56:06;;;;;;;3.58;1.10;;;;;;;;;;5034765;28;20103;-78
2023/05/01 07:58:31;;;;;;;3.78;1.00;;;;;;;;;;5021090;28;20088;-79
2023/05/01 08:00:57;;;;;;;5.22;1.27;;;;;;;;;;5035001;28;20037;-78
2023/05/01 08:03:22;;;;;;;4.25;1.00;;;;;;;;;;5041560;28;20119;-78
2023/05/01 08:05:47;;;;;;;4.45;1.20;;;;;;;;;;5034429;28;20036;-78
2023/05/01 08:08:19;;;;;;;3.97;1.40;;;;;;;;;;5038336;28;20551;-78
2023/05/01 08:10:44;;;;;;;2.25;1.13;;;;;;;;;;5047722;28;20036;-79
2023/05/01 08:13:10;;;;;;;2.83;1.33;;;;;;;;;;5043098;28;20037;-79
2023/05/01 08:15:37;;;;;;;4.35;1.10;;;;;;;;;;5038300;28;20041;-78
2023/05/01 08:18:03;;;;;;;2.65;1.10;;;;;;;;;;5033669;28;20444;-79
2023/05/01 08:20:28;;;;;;;4.63;1.20;;;;;;;;;;5035835;28;20034;-78
2023/05/01 08:22:54;;;;;;;3.45;1.25;;;;;;;;;;5034464;28;20373;-78
2023/05/01 08:25:19;;;;;;;2.53;1.00;;;;;;;;;;5042488;28;20049;-79
2023/05/01 08:27:44;;;;;;;1.55;0.70;;;;;;;;;;5034226;28;20381;-78
2023/05/01 08:30:10;;;;;;;4.35;1.05;;;;;;;;;;5039972;28;20397;-77
2023/05/01 08:32:35;;;;;;;6.28;1.13;;;;;;;;;;5038194;28;20048;-78
2023/05/01 08:35:01;;;;;;;2.35;0.80;;;;;;;;;;5039819;28;20026;-78
2023/05/01 08:37:26;;;;;;;4.35;1.00;;;;;;;;;;5026809;28;20038;-79
2023/05/01 08:39:51;;;;;;;4.57;1.20;;;;;;;;;;5040477;28;20442;-79
2023/05/01 08:42:17;;;;;;;2.53;0.95;;;;;;;;;;5040849;28;20065;-79
2023/05/01 08:44:42;;;;;;;3.30;0.85;;;;;;;;;;5045200;28;20034;-79
2023/05/01 08:47:13;;;;;;;4.60;1.00;;;;;;;;;;5044311;28;20405;-79
2023/05/01 08:49:40;;;;;;;3.28;0.90;;;;;;;;;;5020292;28;20072;-78
2023/05/01 08:52:07;;;;;;;2.58;1.23;;;;;;;;;;5033984;28;20375;-79
2023/05/01 08:54:33;;;;;;;4.95;1.20;;;;;;;;;;5054672;28;20103;-79
2023/05/01 08:57:03;;;;;;;3.75;0.98;;;;;;;;;;5038672;28;20044;-79
2023/05/01 08:59:30;;;;;;;3.00;1.10;;;;;;;;;;5062429;28;20045;-78
2023/05/01 09:01:55;;;;;;;3.70;0.80;;;;;;;;;;5046104;28;20072;-78
2023/05/01 09:04:21;;;;;;;2.55;0.98;;;;;;;;;;5059561;28;20064;-78
2023/05/01 09:06:46;;;;;;;3.30;1.00;;;;;;;;;;5043571;28;20033;-79
2023/05/01 09:09:11;;;;;;;3.75;0.90;;;;;;;;;;5038062;28;20045;-78
2023/05/01 09:11:37;;;;;;;4.60;1.10;;;;;;;;;;5042991;28;20033;-79
2023/05/01 09:14:07;;;;;;;1.90;0.85;;;;;;;;;;5026622;28;20041;-78
2023/05/01 09:16:32;;;;;;;2.53;0.98;;;;;;;;;;5029342;28;20074;-79
2023/05/01 09:18:58;;;;;;;2.45;1.00;;;;;;;;;;5027547;28;20062;-78
2023/05/01 09:21:24;;;;;;;2.75;0.70;;;;;;;;;;5037978;28;20120;-78
2023/05/01 09:23:50;;;;;;;5.47;0.70;;;;;;;;;;5046884;28;20051;-78
2023/05/01 09:26:15;;;;;;;1.30;0.60;;;;;;;;;;5053152;28;20033;-79
2023/05/01 09:28:41;;;;;;;2.03;0.70;;;;;;;;;;5051033;28;20041;-78
2023/05/01 09:31:31;;;;;;;2.50;0.80;;;;;;;;;;5050430;28;20127;-78
2023/05/01 09:34:02;;;;;;;3.97;1.00;;;;;;;;;;5034477;28;20041;-77
2023/05/01 09:36:29;;;;;;;2.63;0.77;;;;;;;;;;5063077;28;20172;-78
2023/05/01 09:38:56;;;;;;;5.55;0.85;;;;;;;;;;5045476;28;20041;-78
2023/05/01 09:41:21;;;;;;;1.13;0.70;;;;;;;;;;5053472;28;20043;-77
2023/05/01 09:43:55;;;;;;;2.38;0.70;;;;;;;;;;5029290;28;20380;-77
2023/05/01 09:46:22;;;;;;;4.40;1.05;;;;;;;;;;5037134;28;20073;-78
2023/05/01 09:48:57;;;;;;;3.15;0.90;;;;;;;;;;5045059;28;20079;-78
2023/05/01 09:51:30;;;;;;;4.53;1.00;;;;;;;;;;5044788;28;20038;-78
2023/05/01 09:53:57;;;;;;;4.37;0.97;;;;;;;;;;5060381;28;20034;-77
2023/05/01 09:56:24;;;;;;;4.15;0.85;;;;;;;;;;5040286;28;20124;-77
2023/05/01 09:58:51;;;;;;;1.13;0.75;;;;;;;;;;5033743;28;20478;-77
2023/05/01 10:01:16;;;;;;;1.80;0.73;;;;;;;;;;5039924;28;20033;-78
2023/05/01 10:03:43;;;;;;;3.35;0.88;;;;;;;;;;5041728;28;20094;-77
2023/05/01 10:06:09;;;;;;;2.03;0.70;;;;;;;;;;5043340;28;20541;-78
2023/05/01 10:08:48;;;;;;;2.97;0.70;;;;;;;;;;5042726;28;20033;-77
2023/05/01 10:11:13;;;;;;;1.20;0.60;;;;;;;;;;5037134;28;20033;-78
2023/05/01 10:13:39;;;;;;;1.30;0.75;;;;;;;;;;5024609;28;21013;-78
2023/05/01 10:16:07;;;;;;;2.60;0.80;;;;;;;;;;5052538;28;20110;-78
2023/05/01 10:18:36;;;;;;;2.17;0.77;;;;;;;;;;5063051;28;20029;-77
2023/05/01 10:21:03;;;;;;;1.35;0.70;;;;;;;;;;5053532;28;20067;-77
2023/05/01 10:23:28;;;;;;;1.92;0.60;;;;;;;;;;5051680;28;20033;-77
2023/05/01 10:25:55;;;;;;;1.02;0.65;;;;;;;;;;5037735;28;20030;-78
2023/05/01 10:28:22;;;;;;;4.45;0.70;;;;;;;;;;5038159;28;20048;-77
2023/05/01 10:30:48;;;;;;;2.58;0.60;;;;;;;;;;5038575;28;20040;-78
2023/05/01 10:33:13;;;;;;;1.45;0.77;;;;;;;;;;5032938;28;20516;-78
2023/05/01 10:35:41;;;;;;;1.23;0.65;;;;;;;;;;5042183;28;20056;-77
2023/05/01 10:38:10;;;;;;;1.88;0.70;;;;;;;;;;5049140;28;20067;-77
2023/05/01 10:40:38;;;;;;;1.48;0.75;;;;;;;;;;5052110;28;20090;-77
2023/05/01 10:43:17;;;;;;;3.17;0.70;;;;;;;;;;5035462;28;20071;-78
2023/05/01 10:45:47;;;;;;;1.38;0.73;;;;;;;;;;5044066;28;20033;-78
2023/05/01 10:48:37;;;;;;;2.55;0.88;;;;;;;;;;5045754;28;20037;-78
2023/05/01 10:51:08;;;;;;;1.23;0.57;;;;;;;;;;5046783;28;20037;-77
2023/05/01 10:53:33;;;;;;;1.13;0.60;;;;;;;;;;5049517;28;20037;-77
2023/05/01 10:55:59;;;;;;;1.33;0.60;;;;;;;;;;5036334;28;20037;-77
2023/05/01 10:58:37;;;;;;;1.13;0.70;;;;;;;;;;5018429;28;21156;-78
2023/05/01 11:01:35;;;;;;;1.95;0.65;;;;;;;;;;5034128;28;20509;-78
2023/05/01 11:04:27;;;;;;;2.08;0.68;;;;;;;;;;5031524;28;20045;-78
2023/05/01 11:07:04;;;;;;;1.13;0.60;;;;;;;;;;5033580;28;20094;-78
2023/05/01 11:09:36;;;;;;;1.15;0.70;;;;;;;;;;5022461;28;20037;-79
2023/05/01 11:12:02;;;;;;;2.15;0.90;;;;;;;;;;5037510;28;20448;-78
2023/05/01 11:15:04;;;;;;;2.63;0.80;;;;;;;;;;5032980;28;20069;-78
2023/05/01 11:17:38;;;;;;;1.92;0.60;;;;;;;;;;5035103;28;20504;-78
2023/05/01 11:20:04;;;;;;;2.17;1.00;;;;;;;;;;5038653;28;20064;-78
2023/05/01 11:22:30;;;;;;;1.25;0.60;;;;;;;;;;5038831;28;20071;-78
2023/05/01 11:24:56;;;;;;;1.80;0.73;;;;;;;;;;5042075;28;20450;-78
2023/05/01 11:27:21;;;;;;;2.72;0.63;;;;;;;;;;5032563;28;20069;-77
2023/05/01 11:29:49;;;;;;;0.90;0.60;;;;;;;;;;5034841;28;20049;-78
2023/05/01 11:32:19;;;;;;;2.58;0.70;;;;;;;;;;5051537;28;20029;-78
2023/05/01 11:34:45;;;;;;;1.77;0.73;;;;;;;;;;5030251;28;20029;-78
2023/05/01 11:37:11;;;;;;;3.63;0.70;;;;;;;;;;5032634;28;20516;-79
2023/05/01 11:39:36;;;;;;;2.60;0.80;;;;;;;;;;5049918;28;20071;-78
2023/05/01 11:42:08;;;;;;;2.72;0.70;;;;;;;;;;5045021;28;20120;-79
2023/05/01 11:44:34;;;;;;;2.38;0.80;;;;;;;;;;5060475;28;20435;-78
2023/05/01 11:47:01;;;;;;;3.28;0.80;;;;;;;;;;5029387;28;20040;-78
2023/05/01 11:49:27;;;;;;;2.00;0.70;;;;;;;;;;5034451;28;20049;-78
2023/05/01 11:51:58;;;;;;;2.67;0.70;;;;;;;;;;5026811;28;20380;-78
2023/05/01 11:54:25;;;;;;;3.65;0.80;;;;;;;;;;5029617;28;20051;-78
2023/05/01 11:56:59;;;;;;;2.58;1.20;;;;;;;;;;5031301;28;20037;-78
2023/05/01 11:59:25;;;;;;;1.33;0.63;;;;;;;;;;5043003;28;20033;-78
2023/05/01 12:01:52;;;;;;;1.33;0.68;;;;;;;;;;5042023;28;20386;-78
2023/05/01 12:04:27;;;;;;;3.13;0.80;;;;;;;;;;5040989;28;20040;-78
2023/05/01 12:06:52;;;;;;;1.60;0.63;;;;;;;;;;5039914;28;20477;-78
2023/05/01 12:09:22;;;;;;;0.73;0.50;;;;;;;;;;5038866;28;20121;-78
2023/05/01 12:11:51;;;;;;;1.25;0.60;;;;;;;;;;5027280;28;20083;-78
2023/05/01 12:14:18;;;;;;;1.58;0.70;;;;;;;;;;5022688;28;20088;-78
2023/05/01 12:16:44;;;;;;;1.30;0.55;;;;;;;;;;5038050;28;20048;-78
2023/05/01 12:19:12;;;;;;;1.48;0.63;;;;;;;;;;5036011;28;20042;-78
2023/05/01 12:21:37;;;;;;;0.73;0.52;;;;;;;;;;5038890;28;20124;-78
2023/05/01 12:24:09;;;;;;;1.52;0.50;;;;;;;;;;5028073;28;20511;-78
2023/05/01 12:26:35;;;;;;;1.40;0.70;;;;;;;;;;5043133;28;20032;-78
2023/05/01 12:29:03;;;;;;;1.60;0.68;;;;;;;;;;5060535;28;20045;-77
2023/05/01 12:31:29;;;;;;;1.77;0.70;;;;;;;;;;5035675;28;20099;-78
2023/05/01 12:33:56;;;;;;;2.50;0.70;;;;;;;;;;5047913;28;20116;-78
2023/05/01 12:36:26;;;;;;;1.02;0.52;;;;;;;;;;5030879;28;20037;-78
2023/05/01 12:38:56;;;;;;;1.30;0.55;;;;;;;;;;5034393;28;20037;-78
2023/05/01 12:41:38;;;;;;;4.35;0.70;;;;;;;;;;5033170;28;20362;-78
2023/05/01 12:44:23;;;;;;;1.83;0.70;;;;;;;;;;5033801;28;20029;-78
2023/05/01 12:46:59;;;;;;;1.65;0.80;;;;;;;;;;5030916;28;20029;-77
2023/05/01 12:49:26;;;;;;;3.42;0.88;;;;;;;;;;5050894;28;20060;-78
2023/05/01 12:51:53;;;;;;;0.73;0.50;;;;;;;;;;5034024;28;20507;-78
2023/05/01 12:54:22;;;;;;;2.30;0.82;;;;;;;;;;5043218;28;20044;-78
2023/05/01 12:56:48;;;;;;;2.05;0.95;;;;;;;;;;5037960;28;20056;-78
2023/05/01 12:59:26;;;;;;;1.48;0.63;;;;;;;;;;5042258;28;20043;-78
2023/05/01 13:02:02;;;;;;;2.15;0.77;;;;;;;;;;5035940;28;20064;-78
2023/05/01 13:04:28;;;;;;;2.90;0.50;;;;;;;;;;5036117;28;20037;-77
2023/05/01 13:06:54;;;;;;;2.08;0.73;;;;;;;;;;5036140;28;20045;-77
2023/05/01 13:09:21;;;;;;;1.27;0.63;;;;;;;;;;5030568;28;20474;-77
2023/05/01 13:12:01;;;;;;;2.35;0.68;;;;;;;;;;5038956;28;20469;-77
2023/05/01 13:14:39;;;;;;;0.50;0.50;;;;;;;;;;5034051;28;20049;-77
2023/05/01 13:17:11;;;;;;;0.65;0.50;;;;;;;;;;5049820;28;20373;-77
2023/05/01 13:19:37;;;;;;;1.48;0.60;;;;;;;;;;5046368;28;20037;-78
2023/05/01 13:22:03;;;;;;;2.70;0.70;;;;;;;;;;5066695;28;20088;-78
2023/05/01 13:24:39;;;;;;;1.88;0.50;;;;;;;;;;5044506;28;20457;-77
2023/05/01 13:27:06;;;;;;;2.08;0.70;;;;;;;;;;5041081;28;20423;-77
2023/05/01 13:29:32;;;;;;;1.48;0.80;;;;;;;;;;5041813;28;20037;-77
2023/05/01 13:31:57;;;;;;;2.58;0.77;;;;;;;;;;5045523;28;20083;-77
2023/05/01 13:34:26;;;;;;;3.00;0.93;;;;;;;;;;5047014;28;20481;-78
2023/05/01 13:36:53;;;;;;;2.22;0.70;;;;;;;;;;5052007;28;20492;-77
2023/05/01 13:39:22;;;;;;;1.13;0.60;;;;;;;;;;5049727;28;20431;-78
2023/05/01 13:41:48;;;;;;;1.25;0.60;;;;;;;;;;5042036;28;20095;-77
2023/05/01 13:44:15;;;;;;;1.52;0.57;;;;;;;;;;5046502;28;20086;-78
2023/05/01 13:46:43;;;;;;;0.40;0.40;;;;;;;;;;5044536;28;20051;-78
2023/05/01 13:49:09;;;;;;;0.85;0.55;;;;;;;;;;5048481;28;20444;-78
2023/05/01 13:51:36;;;;;;;0.95;0.50;;;;;;;;;;5041227;28;20116;-78
2023/05/01 13:54:07;;;;;;;1.25;0.70;;;;;;;;;;5024721;28;20528;-76
2023/05/01 13:56:34;;;;;;;2.47;0.70;;;;;;;;;;5035631;28;20049;-77
2023/05/01 13:58:59;;;;;;;1.48;0.60;;;;;;;;;;5046746;28;20112;-77
2023/05/01 14:01:25;;;;;;;1.88;0.65;;;;;;;;;;5043301;28;20109;-77
2023/05/01 14:03:52;;;;;;;1.35;0.70;;;;;;;;;;5033591;28;20041;-77
2023/05/01 14:06:19;;;;;;;2.38;0.88;;;;;;;;;;5038451;28;20041;-78
2023/05/01 14:08:46;;;;;;;1.08;0.60;;;;;;;;;;5043120;28;20053;-77
2023/05/01 14:11:12;;;;;;;1.05;0.50;;;;;;;;;;5038139;28;20049;-77
2023/05/01 14:13:46;;;;;;;1.60;0.73;;;;;;;;;;5064725;28;20042;-77
2023/05/01 14:16:24;;;;;;;;;;;;;;;;;;5050146;28;20036;-77
2023/05/01 14:18:55;;;;;;;1.65;0.50;;;;;;;;;;5039765;28;19921;-76
2023/05/01 14:21:22;;;;;;;1.30;0.60;;;;;;;;;;5039760;28;20049;-77
2023/05/01 14:23:48;;;;;;;0.98;0.50;;;;;;;;;;5050213;28;20040;-77
2023/05/01 14:26:17;;;;;;;1.00;0.60;;;;;;;;;;5043056;28;20423;-78
2023/05/01 14:28:45;;;;;;;1.10;0.68;;;;;;;;;;5036886;28;20071;-77
2023/05/01 14:31:15;;;;;;;1.65;0.60;;;;;;;;;;5034118;28;20052;-77
2023/05/01 14:33:42;;;;;;;1.02;0.52;;;;;;;;;;5040402;28;20037;-77
2023/05/01 14:36:07;;;;;;;1.67;0.70;;;;;;;;;;5048467;28;20064;-77
2023/05/01 14:38:37;;;;;;;1.27;0.50;;;;;;;;;;5045745;28;20076;-77